Time;durP1;ratioP1;P1;durP2;ratioP2;P2;SDS_P1;SDS_P2;PMS_P1;PMS_P2;Temp;Humidity;BMP_temperature;BMP_pressure;BME280_temperature;BME280_humidity;BME280_pressure;Samples;Min_cycle;Max_cycle;Signal;HPM_P1;HPM_P2
2023/05/11 00:02:31;;;;;;;3.40;2.10;;;;;;;13.86;100.00;101125.13;6254260;28;20056;-71
2023/05/11 00:05:34;;;;;;;3.42;1.92;;;;;;;13.87;100.00;101132.13;6252639;28;20045;-71
2023/05/11 00:08:36;;;;;;;3.33;2.25;;;;;;;13.85;100.00;101129.56;6253600;28;20049;-71
2023/05/11 00:11:37;;;;;;;4.40;2.58;;;;;;;13.84;100.00;101130.50;6254069;28;20050;-71
2023/05/11 00:14:39;;;;;;;4.70;2.50;;;;;;;13.83;100.00;101130.59;6253398;28;20049;-71
2023/05/11 00:17:41;;;;;;;3.55;2.55;;;;;;;13.80;100.00;101136.91;6253576;28;20053;-70
2023/05/11 00:20:43;;;;;;;3.70;2.50;;;;;;;13.71;100.00;101130.38;6253510;28;20438;-71
2023/05/11 00:23:45;;;;;;;3.28;2.40;;;;;;;13.74;100.00;101131.16;6253680;28;20049;-71
2023/05/11 00:26:46;;;;;;;3.97;2.72;;;;;;;13.70;100.00;101126.03;6253514;28;20045;-71
2023/05/11 00:29:47;;;;;;;4.00;2.55;;;;;;;13.71;100.00;101122.47;6253337;28;20056;-70
2023/05/11 00:32:50;;;;;;;4.20;2.70;;;;;;;13.66;100.00;101119.25;6253124;28;20350;-70
2023/05/11 00:35:52;;;;;;;4.35;2.75;;;;;;;13.65;100.00;101124.63;6253135;28;20365;-71
2023/05/11 00:38:54;;;;;;;2.80;2.15;;;;;;;13.65;100.00;101128.13;6253119;28;20056;-71
2023/05/11 00:41:55;;;;;;;2.90;2.13;;;;;;;13.65;100.00;101124.63;6253150;28;20056;-71
2023/05/11 00:44:57;;;;;;;5.47;2.30;;;;;;;13.64;100.00;101123.78;6252603;28;20068;-70
2023/05/11 00:47:58;;;;;;;3.83;1.95;;;;;;;13.63;100.00;101115.97;6252762;28;20049;-71
2023/05/11 00:51:03;;;;;;;6.78;2.97;;;;;;;13.63;100.00;101108.88;6253031;28;20052;-71
2023/05/11 00:54:08;;;;;;;4.05;2.95;;;;;;;13.64;100.00;101115.88;6252902;28;20049;-70
2023/05/11 00:57:09;;;;;;;6.20;3.20;;;;;;;13.63;100.00;101116.81;6252869;28;20057;-71
2023/05/11 01:00:11;;;;;;;5.28;3.33;;;;;;;13.61;100.00;101115.19;6252422;28;20396;-71
2023/05/11 01:03:14;;;;;;;5.70;3.10;;;;;;;13.58;100.00;101112.72;6252587;28;20401;-71
2023/05/11 01:06:29;;;;;;;4.43;3.08;;;;;;;13.53;100.00;101120.91;6252400;28;20045;-71
2023/05/11 01:09:43;;;;;;;6.60;3.38;;;;;;;13.53;100.00;101126.19;6252526;28;20060;-70
2023/05/11 01:12:50;;;;;;;2.97;2.13;;;;;;;13.52;100.00;101121.03;6252400;28;20045;-70
2023/05/11 01:15:55;;;;;;;4.93;2.97;;;;;;;13.54;100.00;101124.44;6251545;28;20053;-71
2023/05/11 01:19:01;;;;;;;5.30;2.53;;;;;;;13.54;100.00;101121.81;6251980;28;20057;-71
2023/05/11 01:22:15;;;;;;;6.80;3.30;;;;;;;13.57;100.00;101124.25;6252710;28;20457;-71
2023/05/11 01:25:31;;;;;;;3.70;2.38;;;;;;;13.56;100.00;101126.03;6251986;28;20366;-70
2023/05/11 01:28:52;;;;;;;5.05;3.30;;;;;;;13.52;100.00;101127.16;6251869;28;20772;-70
2023/05/11 01:31:56;;;;;;;5.50;2.70;;;;;;;13.53;100.00;101128.00;6251576;28;20049;-71
2023/05/11 01:35:04;;;;;;;5.25;2.92;;;;;;;13.54;100.00;101133.22;6251238;28;20350;-70
2023/05/11 01:38:10;;;;;;;4.28;2.30;;;;;;;13.53;100.00;101134.13;6250884;28;20050;-70
2023/05/11 01:41:14;;;;;;;4.40;2.67;;;;;;;13.54;100.00;101140.28;6249400;28;20458;-71
2023/05/11 01:44:19;;;;;;;6.03;3.17;;;;;;;13.55;100.00;101141.97;6250661;28;20038;-70
2023/05/11 01:47:25;;;;;;;5.50;2.80;;;;;;;13.57;100.00;101138.28;6248724;28;20176;-71
2023/05/11 01:50:26;;;;;;;6.22;3.70;;;;;;;13.55;100.00;101131.41;6250688;28;20037;-71
2023/05/11 01:53:31;;;;;;;5.05;3.00;;;;;;;13.56;100.00;101133.94;6251110;28;20071;-70
2023/05/11 01:56:34;;;;;;;4.65;3.33;;;;;;;13.53;100.00;101136.75;6250551;28;20046;-70
2023/05/11 01:59:39;;;;;;;6.93;4.07;;;;;;;13.53;100.00;101146.47;6250685;28;20060;-71
2023/05/11 02:02:44;;;;;;;5.60;2.97;;;;;;;13.50;100.00;101147.53;6248345;28;20049;-71
2023/05/11 02:05:48;;;;;;;3.70;2.45;;;;;;;13.51;100.00;101143.09;6250678;28;20047;-71
2023/05/11 02:08:50;;;;;;;5.25;3.30;;;;;;;13.54;100.00;101149.06;6250350;28;20049;-70
2023/05/11 02:11:56;;;;;;;5.45;3.25;;;;;;;13.51;100.00;101148.38;6250773;28;20060;-71
2023/05/11 02:14:58;;;;;;;7.35;4.03;;;;;;;13.49;100.00;101153.75;6250767;28;20045;-71
2023/05/11 02:18:03;;;;;;;4.80;3.30;;;;;;;13.47;100.00;101152.97;6248658;28;20355;-71
2023/05/11 02:21:06;;;;;;;4.75;2.88;;;;;;;13.48;100.00;101145.91;6242493;28;20050;-71
2023/05/11 02:24:08;;;;;;;6.82;3.63;;;;;;;13.45;100.00;101152.22;6249972;28;20052;-71
2023/05/11 02:27:10;;;;;;;3.38;2.45;;;;;;;13.45;100.00;101154.88;6250019;28;20469;-70
2023/05/11 02:30:12;;;;;;;3.45;2.38;;;;;;;13.45;100.00;101155.72;6250496;28;20049;-70
2023/05/11 02:33:20;;;;;;;11.93;3.83;;;;;;;13.43;100.00;101154.09;6250421;28;20085;-70
2023/05/11 02:36:24;;;;;;;5.07;3.17;;;;;;;13.41;100.00;101159.47;6250320;28;20460;-70
2023/05/11 02:39:32;;;;;;;6.50;3.53;;;;;;;13.39;100.00;101157.84;6250045;28;20492;-71
2023/05/11 02:42:38;;;;;;;8.05;4.55;;;;;;;13.40;100.00;101167.50;6250526;28;20049;-71
2023/05/11 02:45:43;;;;;;;8.63;4.35;;;;;;;13.40;100.00;101165.72;6250194;28;20434;-71
2023/05/11 02:48:49;;;;;;;6.30;3.92;;;;;;;13.43;100.00;101165.50;6250230;28;20060;-70
2023/05/11 02:51:54;;;;;;;7.40;4.40;;;;;;;13.40;100.00;101165.72;6250132;28;20053;-71
2023/05/11 02:54:59;;;;;;;6.05;3.20;;;;;;;13.42;100.00;101162.97;6250781;28;20042;-71
2023/05/11 02:58:01;;;;;;;5.65;3.45;;;;;;;13.43;100.00;101164.66;6248639;28;20045;-71
2023/05/11 03:01:06;;;;;;;6.30;3.70;;;;;;;13.39;100.00;101168.41;6242566;28;20365;-71
2023/05/11 03:04:08;;;;;;;6.03;3.67;;;;;;;13.37;100.00;101167.66;6242262;28;20057;-71
2023/05/11 03:07:10;;;;;;;5.43;3.42;;;;;;;13.36;100.00;101168.63;6249955;28;20045;-71
2023/05/11 03:10:12;;;;;;;6.07;3.90;;;;;;;13.38;100.00;101166.72;6249923;28;20056;-71
2023/05/11 03:13:13;;;;;;;6.78;3.85;;;;;;;13.31;100.00;101168.88;6249849;28;20049;-70
2023/05/11 03:16:16;;;;;;;5.47;3.15;;;;;;;13.30;100.00;101164.50;6249579;28;20053;-71
2023/05/11 03:19:19;;;;;;;5.65;3.72;;;;;;;13.30;100.00;101166.31;6230285;28;20048;-71
2023/05/11 03:22:22;;;;;;;6.75;3.42;;;;;;;13.27;100.00;101161.22;6227214;28;20045;-70
2023/05/11 03:25:24;;;;;;;7.22;4.43;;;;;;;13.23;100.00;101171.09;6227953;28;20045;-70
2023/05/11 03:28:29;;;;;;;7.32;5.20;;;;;;;13.23;100.00;101164.97;6228562;28;20045;-71
2023/05/11 03:31:30;;;;;;;9.07;5.32;;;;;;;13.24;100.00;101166.69;6227302;28;20154;-71
2023/05/11 03:34:33;;;;;;;5.20;3.55;;;;;;;13.21;100.00;101165.00;6228406;28;20037;-71
2023/05/11 03:37:37;;;;;;;7.97;4.38;;;;;;;13.20;100.00;101168.59;6228693;28;20057;-71
2023/05/11 03:40:41;;;;;;;6.50;4.10;;;;;;;13.17;100.00;101167.00;6231096;28;20042;-70
2023/05/11 03:43:43;;;;;;;8.20;4.82;;;;;;;13.14;100.00;101166.31;6232425;28;20041;-71
2023/05/11 03:46:47;;;;;;;8.02;4.47;;;;;;;13.09;100.00;101166.59;6231501;28;20057;-71
2023/05/11 03:49:51;;;;;;;7.78;4.38;;;;;;;13.11;100.00;101169.13;6232076;28;20698;-71
2023/05/11 03:52:52;;;;;;;7.53;4.28;;;;;;;13.10;100.00;101167.44;6230473;28;20170;-71
2023/05/11 03:55:53;;;;;;;5.85;4.05;;;;;;;13.12;100.00;101160.25;6233140;28;20078;-71
2023/05/11 03:58:55;;;;;;;7.85;4.72;;;;;;;13.08;100.00;101162.25;6232663;28;20052;-71
2023/05/11 04:01:57;;;;;;;6.93;4.60;;;;;;;13.05;100.00;101159.78;6248723;28;20061;-71
2023/05/11 04:05:00;;;;;;;11.10;5.38;;;;;;;13.04;100.00;101166.00;6241429;28;20058;-71
2023/05/11 04:08:02;;;;;;;10.93;5.78;;;;;;;13.07;100.00;101165.81;6232783;28;20041;-71
2023/05/11 04:11:03;;;;;;;9.23;5.75;;;;;;;13.07;100.00;101167.59;6241451;28;20045;-71
2023/05/11 04:14:05;;;;;;;10.13;5.13;;;;;;;13.03;100.00;101163.44;6246986;28;20053;-71
2023/05/11 04:17:06;;;;;;;9.80;4.78;;;;;;;12.98;100.00;101173.41;6247961;28;20060;-71
2023/05/11 04:20:09;;;;;;;11.13;5.82;;;;;;;12.94;100.00;101165.69;6252593;28;20461;-71
2023/05/11 04:23:11;;;;;;;10.05;5.10;;;;;;;12.90;100.00;101166.78;6250345;28;20058;-71
2023/05/11 04:26:12;;;;;;;8.23;3.80;;;;;;;12.91;100.00;101165.84;6252683;28;20046;-72
2023/05/11 04:29:13;;;;;;;12.05;5.18;;;;;;;12.92;100.00;101167.53;6253318;28;20049;-71
2023/05/11 04:32:15;;;;;;;8.20;4.43;;;;;;;12.97;100.00;101166.44;6253188;28;20353;-72
2023/05/11 04:35:18;;;;;;;8.90;5.47;;;;;;;12.99;100.00;101167.19;6253268;28;20140;-72
2023/05/11 04:38:20;;;;;;;8.70;5.10;;;;;;;13.02;100.00;101167.00;6252650;28;20180;-71
2023/05/11 04:41:22;;;;;;;9.77;5.72;;;;;;;13.03;100.00;101166.91;6253024;28;20046;-72
2023/05/11 04:44:24;;;;;;;11.07;6.40;;;;;;;13.06;100.00;101169.41;6251884;28;20057;-71
2023/05/11 04:47:25;;;;;;;12.30;6.63;;;;;;;13.09;100.00;101176.28;6252025;28;20064;-71
2023/05/11 04:50:28;;;;;;;10.82;5.72;;;;;;;13.04;100.00;101167.78;6251236;28;20045;-71
2023/05/11 04:53:29;;;;;;;8.63;5.07;;;;;;;13.09;100.00;101171.03;6249507;28;20045;-71
2023/05/11 04:56:30;;;;;;;8.45;4.68;;;;;;;13.08;100.00;101170.16;6252092;28;20042;-71
2023/05/11 04:59:32;;;;;;;8.57;4.70;;;;;;;13.01;100.00;101176.72;6249312;28;20049;-71
2023/05/11 05:02:33;;;;;;;8.95;5.00;;;;;;;13.00;100.00;101172.38;6250533;28;20049;-71
2023/05/11 05:05:36;;;;;;;8.68;4.68;;;;;;;13.02;100.00;101172.28;6250956;28;20405;-71
2023/05/11 05:08:38;;;;;;;9.77;4.88;;;;;;;12.98;100.00;101178.69;6252200;28;20049;-71
2023/05/11 05:11:40;;;;;;;8.57;5.07;;;;;;;13.01;100.00;101179.34;6252062;28;20052;-71
2023/05/11 05:14:41;;;;;;;10.52;5.78;;;;;;;13.03;100.00;101187.19;6252177;28;20056;-71
2023/05/11 05:17:43;;;;;;;11.95;5.57;;;;;;;12.99;100.00;101188.28;6251804;28;20132;-71
2023/05/11 05:20:45;;;;;;;9.35;5.35;;;;;;;12.90;100.00;101181.75;6252342;28;20156;-71
2023/05/11 05:23:46;;;;;;;11.20;5.80;;;;;;;12.88;100.00;101186.25;6251815;28;20053;-71
2023/05/11 05:26:48;;;;;;;12.70;5.90;;;;;;;12.90;100.00;101187.88;6251544;28;20053;-71
2023/05/11 05:29:49;;;;;;;9.45;4.72;;;;;;;12.89;100.00;101188.81;6251578;28;20060;-71
2023/05/11 05:32:51;;;;;;;9.68;6.15;;;;;;;12.81;100.00;101195.44;6251010;28;21358;-71
2023/05/11 05:35:53;;;;;;;10.18;6.38;;;;;;;12.81;100.00;101201.59;6250743;28;20049;-71
2023/05/11 05:38:55;;;;;;;9.98;5.80;;;;;;;12.82;100.00;101197.16;6250792;28;20045;-71
2023/05/11 05:41:56;;;;;;;11.20;6.18;;;;;;;12.76;100.00;101200.13;6251274;28;20056;-72
2023/05/11 05:44:57;;;;;;;10.57;6.63;;;;;;;12.78;100.00;101204.38;6251120;28;20057;-71
2023/05/11 05:48:00;;;;;;;13.13;6.20;;;;;;;12.81;100.00;101206.00;6236966;28;20346;-71
2023/05/11 05:51:03;;;;;;;10.38;5.97;;;;;;;12.77;100.00;101207.97;6223365;28;20445;-71
2023/05/11 05:54:04;;;;;;;7.63;4.75;;;;;;;12.78;100.00;101207.03;6219769;28;20050;-72
2023/05/11 05:57:06;;;;;;;9.23;5.78;;;;;;;12.85;100.00;101218.06;6223381;28;20203;-72
2023/05/11 06:00:09;;;;;;;11.20;6.25;;;;;;;12.86;100.00;101219.81;6220059;28;20135;-72
2023/05/11 06:03:10;;;;;;;11.50;6.10;;;;;;;12.87;100.00;101221.50;6226681;28;20131;-72
2023/05/11 06:06:13;;;;;;;9.25;5.07;;;;;;;12.88;100.00;101229.31;6221543;28;20054;-71
2023/05/11 06:09:14;;;;;;;11.20;6.07;;;;;;;12.89;100.00;101232.78;6215931;28;20053;-71
2023/05/11 06:12:16;;;;;;;10.57;5.75;;;;;;;12.79;100.00;101234.25;6216792;28;20053;-72
2023/05/11 06:15:17;;;;;;;10.40;5.78;;;;;;;12.79;100.00;101228.97;6218285;28;20362;-72
2023/05/11 06:18:18;;;;;;;12.43;6.75;;;;;;;12.78;100.00;101229.91;6225833;28;20362;-72
2023/05/11 06:21:21;;;;;;;12.77;6.00;;;;;;;12.82;100.00;101234.09;6225378;28;20045;-72
2023/05/11 06:24:22;;;;;;;11.65;6.93;;;;;;;12.74;100.00;101241.56;6226005;28;20054;-72
2023/05/11 06:27:24;;;;;;;12.68;6.90;;;;;;;12.68;100.00;101233.06;6226158;28;20053;-72
2023/05/11 06:30:25;;;;;;;11.88;6.03;;;;;;;12.73;100.00;101234.59;6226058;28;20085;-72
2023/05/11 06:33:27;;;;;;;10.70;5.88;;;;;;;12.69;100.00;101239.19;6226068;28;20346;-72
2023/05/11 06:36:31;;;;;;;10.38;5.22;;;;;;;12.69;100.00;101239.19;6225998;28;20366;-72
2023/05/11 06:39:36;;;;;;;12.63;6.30;;;;;;;12.72;100.00;101232.88;6225716;28;20068;-72
2023/05/11 06:42:37;;;;;;;11.15;6.10;;;;;;;12.70;100.00;101238.22;6225691;28;20057;-72
2023/05/11 06:45:40;;;;;;;11.13;5.93;;;;;;;12.75;100.00;101230.91;6225665;28;20045;-72
2023/05/11 06:48:42;;;;;;;9.13;5.72;;;;;;;12.76;100.00;101237.03;6225640;28;20132;-72
2023/05/11 06:51:44;;;;;;;11.85;6.25;;;;;;;12.76;100.00;101229.97;6225810;28;20050;-72
2023/05/11 06:54:46;;;;;;;11.27;6.45;;;;;;;12.71;100.00;101237.28;6225912;28;20046;-72
2023/05/11 06:57:47;;;;;;;8.50;4.70;;;;;;;12.76;100.00;101237.88;6225267;28;20042;-72
2023/05/11 07:00:48;;;;;;;11.18;6.03;;;;;;;12.81;100.00;101235.88;6225736;28;20046;-72
2023/05/11 07:03:50;;;;;;;10.30;5.88;;;;;;;12.84;100.00;101238.31;6225552;28;20092;-70
2023/05/11 07:06:53;;;;;;;11.65;6.63;;;;;;;12.89;100.00;101243.34;6225564;28;20053;-72
2023/05/11 07:09:54;;;;;;;11.07;6.05;;;;;;;12.87;100.00;101242.59;6225352;28;20351;-72
2023/05/11 07:12:55;;;;;;;13.20;6.63;;;;;;;12.91;100.00;101242.34;6225097;28;20049;-72
2023/05/11 07:15:57;;;;;;;10.27;5.40;;;;;;;12.89;100.00;101241.56;6229606;28;20045;-72
2023/05/11 07:18:58;;;;;;;12.45;6.18;;;;;;;12.90;100.00;101245.06;6230016;28;20072;-72
2023/05/11 07:22:01;;;;;;;12.55;7.25;;;;;;;12.83;100.00;101241.91;6230158;28;20484;-72
2023/05/11 07:25:03;;;;;;;13.43;6.40;;;;;;;12.85;100.00;101242.69;6230109;28;20137;-72
2023/05/11 07:28:04;;;;;;;13.73;6.65;;;;;;;12.87;100.00;101245.22;6229783;28;20465;-72
2023/05/11 07:31:06;;;;;;;14.02;6.93;;;;;;;12.85;100.00;101242.69;6230030;28;20053;-72
2023/05/11 07:34:07;;;;;;;9.43;5.75;;;;;;;12.92;100.00;101248.47;6230085;28;20065;-72
2023/05/11 07:37:11;;;;;;;11.52;6.05;;;;;;;12.88;100.00;101242.50;6229837;28;20061;-72
2023/05/11 07:40:12;;;;;;;13.80;7.82;;;;;;;12.88;100.00;101245.13;6229747;28;20133;-72
2023/05/11 07:43:13;;;;;;;10.43;5.72;;;;;;;12.87;100.00;101247.88;6229676;28;20046;-72
2023/05/11 07:46:15;;;;;;;11.13;5.82;;;;;;;12.87;100.00;101245.22;6229117;28;20072;-72
2023/05/11 07:49:16;;;;;;;11.80;5.93;;;;;;;12.91;100.00;101249.41;6229299;28;20101;-72
2023/05/11 07:52:19;;;;;;;11.15;6.68;;;;;;;12.87;100.00;101246.09;6229571;28;20087;-72
2023/05/11 07:55:23;;;;;;;9.35;5.22;;;;;;;12.86;100.00;101241.75;6229425;28;20532;-72
2023/05/11 07:58:25;;;;;;;10.82;5.70;;;;;;;12.89;100.00;101253.91;6229116;28;20465;-72
2023/05/11 08:01:26;;;;;;;9.07;5.03;;;;;;;12.96;100.00;101257.91;6229498;28;20050;-72
2023/05/11 08:04:29;;;;;;;13.85;6.22;;;;;;;13.01;100.00;101253.25;6229063;28;20132;-72
2023/05/11 08:07:31;;;;;;;10.23;5.78;;;;;;;13.00;100.00;101258.59;6229171;28;20042;-72
2023/05/11 08:10:33;;;;;;;10.68;5.70;;;;;;;13.03;100.00;101258.41;6228927;28;20053;-72
2023/05/11 08:13:34;;;;;;;10.98;5.07;;;;;;;13.09;100.00;101253.66;6228844;28;20427;-72
2023/05/11 08:16:36;;;;;;;11.48;5.10;;;;;;;13.17;100.00;101258.50;6228543;28;20061;-72
2023/05/11 08:19:37;;;;;;;16.13;6.25;;;;;;;13.21;100.00;101258.25;6228509;28;20529;-72
2023/05/11 08:22:40;;;;;;;10.75;5.60;;;;;;;13.26;100.00;101267.72;6228822;28;20045;-72
2023/05/11 08:25:42;;;;;;;8.90;5.40;;;;;;;13.26;100.00;101270.38;6227329;28;20053;-72
2023/05/11 08:28:43;;;;;;;10.25;5.63;;;;;;;13.26;100.00;101270.38;6228591;28;20054;-72
2023/05/11 08:31:45;;;;;;;13.40;5.95;;;;;;;13.23;100.00;101265.28;6228576;28;20046;-72
2023/05/11 08:34:46;;;;;;;14.45;5.60;;;;;;;13.19;100.00;101261.91;6228677;28;20056;-72
2023/05/11 08:37:49;;;;;;;12.05;6.07;;;;;;;13.24;100.00;101272.25;6228225;28;20446;-72
2023/05/11 08:40:50;;;;;;;14.40;5.80;;;;;;;13.30;100.00;101269.25;6228274;28;20374;-72
2023/05/11 08:43:52;;;;;;;13.38;6.20;;;;;;;13.34;100.00;101266.34;6228170;28;20050;-72
2023/05/11 08:46:54;;;;;;;11.73;6.32;;;;;;;13.40;100.00;101271.31;6228014;28;20042;-72
2023/05/11 08:49:57;;;;;;;12.13;6.20;;;;;;;13.45;100.00;101265.78;6228022;28;20050;-72
2023/05/11 08:52:59;;;;;;;12.05;5.50;;;;;;;13.45;100.00;101258.69;6228064;28;20096;-72
2023/05/11 08:56:05;;;;;;;10.63;5.53;;;;;;;13.49;100.00;101264.66;6228024;28;20057;-72
2023/05/11 08:59:07;;;;;;;12.02;5.00;;;;;;;13.54;100.00;101264.41;6227781;28;20057;-72
2023/05/11 09:02:13;;;;;;;9.27;5.15;;;;;;;13.55;100.00;101268.72;6228102;28;20081;-72
2023/05/11 09:05:15;;;;;;;7.10;4.25;;;;;;;13.57;100.00;101264.19;6227691;28;20054;-72
2023/05/11 09:08:19;;;;;;;12.30;5.50;;;;;;;13.53;100.00;101268.78;6227516;28;20049;-72
2023/05/11 09:11:21;;;;;;;10.20;5.35;;;;;;;13.61;100.00;101263.94;6227657;28;20057;-72
2023/05/11 09:14:23;;;;;;;9.43;4.35;;;;;;;13.65;100.00;101268.09;6227291;28;20053;-72
2023/05/11 09:17:27;;;;;;;7.40;4.32;;;;;;;13.65;100.00;101268.09;6227437;28;20462;-72
2023/05/11 09:20:30;;;;;;;13.10;5.43;;;;;;;13.67;100.00;101268.88;6227391;28;20049;-72
2023/05/11 09:23:33;;;;;;;10.50;5.10;;;;;;;13.69;100.00;101269.63;6227421;28;20042;-72
2023/05/11 09:26:36;;;;;;;10.07;4.82;;;;;;;13.67;100.00;101271.53;6227109;28;20370;-72
2023/05/11 09:29:37;;;;;;;8.77;4.50;;;;;;;13.74;100.00;101266.72;6227156;28;20041;-72
2023/05/11 09:32:49;;;;;;;11.13;4.85;;;;;;;13.73;100.00;101266.81;6227104;28;20056;-72
2023/05/11 09:35:52;;;;;;;10.85;4.45;;;;;;;13.75;100.00;101267.56;6227145;28;20057;-72
2023/05/11 09:39:01;;;;;;;8.63;4.45;;;;;;;13.80;100.00;101270.78;6226457;28;20049;-72
2023/05/11 09:42:16;;;;;;;10.80;5.05;;;;;;;13.80;100.00;101274.28;6227175;28;20435;-73
2023/05/11 09:45:36;;;;;;;10.27;5.00;;;;;;;13.75;100.00;101271.06;6226638;28;20362;-72
2023/05/11 09:48:38;;;;;;;9.45;4.35;;;;;;;13.70;100.00;101267.84;6226522;28;20078;-72
2023/05/11 09:51:40;;;;;;;8.43;4.35;;;;;;;13.72;100.00;101265.97;6227032;28;20060;-72
2023/05/11 09:54:45;;;;;;;8.73;4.20;;;;;;;13.75;100.00;101268.41;6226590;28;20439;-72
2023/05/11 09:57:53;;;;;;;8.68;4.80;;;;;;;13.81;100.00;101270.72;6226553;28;20046;-72
2023/05/11 10:00:54;;;;;;;8.80;4.22;;;;;;;13.83;100.00;101267.97;6226555;28;20100;-72
2023/05/11 10:04:03;;;;;;;9.82;4.10;;;;;;;13.81;100.00;101268.06;6225898;28;20442;-72
2023/05/11 10:07:05;;;;;;;8.18;4.78;;;;;;;13.85;100.00;101266.06;6226344;28;20046;-72
2023/05/11 10:10:10;;;;;;;9.15;4.40;;;;;;;13.90;100.00;101266.69;6225773;28;20045;-72
2023/05/11 10:13:12;;;;;;;10.05;5.45;;;;;;;13.92;100.00;101264.78;6225721;28;20076;-72
2023/05/11 10:16:16;;;;;;;8.45;4.60;;;;;;;13.98;100.00;101267.06;6225597;28;20053;-72
2023/05/11 10:19:19;;;;;;;9.35;4.32;;;;;;;13.97;100.00;101265.38;6226137;28;20052;-72
2023/05/11 10:22:21;;;;;;;7.93;3.58;;;;;;;13.96;100.00;101264.53;6226165;28;20060;-72
2023/05/11 10:25:26;;;;;;;8.70;4.05;;;;;;;13.99;100.00;101258.22;6226238;28;20133;-72
2023/05/11 10:28:27;;;;;;;8.55;4.25;;;;;;;14.08;100.00;101252.38;6225804;28;20038;-72
2023/05/11 10:31:29;;;;;;;9.10;3.92;;;;;;;14.09;100.00;101254.06;6226192;28;20050;-72
2023/05/11 10:34:32;;;;;;;9.52;5.18;;;;;;;14.09;100.00;101253.22;6225988;28;20042;-72
2023/05/11 10:37:34;;;;;;;7.20;3.97;;;;;;;14.10;100.00;101255.78;6225984;28;20594;-72
2023/05/11 10:40:40;;;;;;;8.18;4.13;;;;;;;14.14;100.00;101252.00;6225751;28;20045;-72
2023/05/11 10:44:03;;;;;;;7.55;3.83;;;;;;;14.22;100.00;101248.91;6225999;28;20045;-72
2023/05/11 10:47:22;;;;;;;7.35;3.88;;;;;;;14.19;100.00;101255.22;6225618;28;20042;-72
2023/05/11 10:50:39;;;;;;;8.23;4.32;;;;;;;14.21;100.00;101247.19;6225026;28;20045;-72
2023/05/11 10:53:56;;;;;;;7.47;3.80;;;;;;;14.20;100.00;101248.97;6225751;28;20057;-72
2023/05/11 10:57:13;;;;;;;5.93;3.25;;;;;;;14.20;100.00;101248.13;6225750;28;20046;-72
2023/05/11 11:01:06;;;;;;;9.68;4.43;;;;;;;14.23;100.00;101244.47;6218794;28;20054;-72
2023/05/11 11:04:09;;;;;;;9.07;4.00;;;;;;;14.23;100.00;101247.09;6217028;28;20054;-72
2023/05/11 11:07:15;;;;;;;7.53;3.97;;;;;;;14.19;100.00;101249.94;6225578;28;20054;-72
2023/05/11 11:10:30;;;;;;;7.53;3.83;;;;;;;14.17;100.00;101245.66;6225264;28;20050;-72
2023/05/11 11:13:56;;;;;;;7.50;3.92;;;;;;;14.26;100.00;101253.06;6225314;28;20050;-72
2023/05/11 11:17:24;;;;;;;9.52;3.75;;;;;;;14.27;100.00;101252.13;6225575;28;20461;-72
2023/05/11 11:20:47;;;;;;;10.25;4.35;;;;;;;14.28;100.00;101256.44;6225223;28;20131;-72
2023/05/11 11:23:50;;;;;;;10.43;4.03;;;;;;;14.33;100.00;101259.66;6225414;28;20450;-72
2023/05/11 11:26:51;;;;;;;9.05;4.35;;;;;;;14.36;100.00;101251.56;6225311;28;20042;-72
2023/05/11 11:30:17;;;;;;;12.40;4.38;;;;;;;14.37;100.00;101249.75;6225203;28;20566;-72
2023/05/11 11:33:33;;;;;;;6.13;3.67;;;;;;;14.35;100.00;101249.88;6225217;28;20053;-72
2023/05/11 11:37:02;;;;;;;7.80;4.13;;;;;;;14.36;100.00;101245.41;6225274;28;20077;-72
2023/05/11 11:40:04;;;;;;;8.25;3.47;;;;;;;14.32;100.00;101247.41;6217309;28;20083;-72
2023/05/11 11:43:12;;;;;;;6.63;3.83;;;;;;;14.38;100.00;101249.66;6218119;28;20050;-72
2023/05/11 11:46:27;;;;;;;11.48;4.75;;;;;;;14.44;100.00;101245.78;6212326;28;20446;-72
2023/05/11 11:49:29;;;;;;;8.93;4.57;;;;;;;14.52;100.00;101251.47;6215525;28;20504;-72
2023/05/11 11:52:34;;;;;;;11.85;4.85;;;;;;;14.51;100.00;101255.09;6225419;28;20442;-72
2023/05/11 11:55:46;;;;;;;11.65;4.57;;;;;;;14.56;100.00;101246.84;6225375;28;20041;-72
2023/05/11 11:58:57;;;;;;;8.40;3.92;;;;;;;14.58;100.00;101250.25;6223354;28;20124;-72
2023/05/11 12:02:02;;;;;;;10.45;4.68;;;;;;;14.68;100.00;101246.94;6216341;28;20136;-72
2023/05/11 12:05:11;;;;;;;13.63;5.47;;;;;;;14.68;100.00;101248.75;6226424;28;20327;-73
2023/05/11 12:08:15;;;;;;;12.55;5.55;;;;;;;14.65;100.00;101246.28;6222168;28;20046;-73
2023/05/11 12:11:17;;;;;;;10.25;5.35;;;;;;;14.66;100.00;101247.97;6229294;28;20050;-73
2023/05/11 12:14:20;;;;;;;12.13;5.68;;;;;;;14.60;100.00;101246.56;6228626;28;20050;-73
2023/05/11 12:17:28;;;;;;;12.07;4.95;;;;;;;14.57;100.00;101252.03;6223451;28;20128;-73
2023/05/11 12:20:29;;;;;;;9.95;5.28;;;;;;;14.50;100.00;101248.09;6228750;28;20172;-72
2023/05/11 12:23:31;;;;;;;11.43;5.15;;;;;;;14.49;100.00;101243.75;6224976;28;20054;-74
2023/05/11 12:26:34;;;;;;;14.50;4.30;;;;;;;14.56;100.00;101253.00;6222706;28;20453;-74
2023/05/11 12:29:35;;;;;;;10.98;4.68;;;;;;;14.69;100.00;101248.66;6225178;28;20141;-74
2023/05/11 12:32:39;;;;;;;12.77;5.63;;;;;;;14.74;100.00;101240.41;6218477;28;20045;-74
2023/05/11 12:35:40;;;;;;;11.23;5.03;;;;;;;14.71;100.00;101241.44;6220648;28;20133;-74
2023/05/11 12:38:46;;;;;;;12.85;5.80;;;;;;;14.63;100.00;101242.91;6225896;28;20046;-74
2023/05/11 12:41:48;;;;;;;11.25;5.25;;;;;;;14.59;100.00;101241.38;6225863;28;20052;-75
2023/05/11 12:44:51;;;;;;;14.15;6.03;;;;;;;14.49;100.00;101248.16;6227219;28;20057;-74
2023/05/11 12:47:57;;;;;;;11.05;5.15;;;;;;;14.39;100.00;101240.78;6226601;28;20053;-75
2023/05/11 12:50:58;;;;;;;13.63;4.78;;;;;;;14.41;100.00;101238.91;6223946;28;20061;-75
2023/05/11 12:53:59;;;;;;;11.90;5.30;;;;;;;14.45;100.00;101247.50;6213204;28;20050;-75
2023/05/11 12:57:02;;;;;;;12.27;4.75;;;;;;;14.40;100.00;101242.50;6226743;28;20050;-74
2023/05/11 13:00:10;;;;;;;11.93;5.50;;;;;;;14.34;100.00;101240.22;6222977;28;20360;-75
2023/05/11 13:03:13;;;;;;;16.20;5.60;;;;;;;14.31;100.00;101240.41;6219450;28;20052;-75
2023/05/11 13:06:19;;;;;;;17.88;5.43;;;;;;;14.28;100.00;101240.59;6227119;28;20050;-74
2023/05/11 13:09:22;;;;;;;12.95;5.45;;;;;;;14.35;100.00;101234.00;6221573;28;20045;-75
2023/05/11 13:12:24;;;;;;;19.55;6.15;;;;;;;14.32;100.00;101239.47;6227014;28;20053;-75
2023/05/11 13:15:27;;;;;;;13.00;4.97;;;;;;;14.24;100.00;101235.59;6227048;28;20435;-75
2023/05/11 13:18:29;;;;;;;16.08;5.22;;;;;;;14.18;100.00;101232.38;6225560;28;20046;-75
2023/05/11 13:21:32;;;;;;;14.77;5.90;;;;;;;14.17;100.00;101232.44;6227379;28;20042;-75
2023/05/11 13:24:33;;;;;;;8.55;3.80;;;;;;;14.20;100.00;101221.69;6227397;28;20339;-75
2023/05/11 13:27:35;;;;;;;14.93;4.57;;;;;;;14.18;100.00;101220.94;6227153;28;20038;-75
2023/05/11 13:30:37;;;;;;;13.43;4.47;;;;;;;14.16;100.00;101218.38;6227199;28;20053;-75
2023/05/11 13:33:39;;;;;;;11.18;4.57;;;;;;;14.17;100.00;101211.28;6220818;28;20049;-75
2023/05/11 13:36:41;;;;;;;11.00;4.78;;;;;;;14.25;100.00;101209.03;6227125;28;20055;-75
2023/05/11 13:39:42;;;;;;;11.05;4.82;;;;;;;14.27;100.00;101208.97;6218887;28;20073;-75
2023/05/11 13:42:44;;;;;;;14.63;4.43;;;;;;;14.21;100.00;101205.72;6227049;28;20055;-75
2023/05/11 13:45:45;;;;;;;17.10;5.18;;;;;;;14.18;100.00;101205.09;6226528;28;20538;-75
2023/05/11 13:48:48;;;;;;;10.23;4.32;;;;;;;14.20;100.00;101208.47;6226313;28;20046;-75
2023/05/11 13:51:51;;;;;;;12.88;5.28;;;;;;;14.26;100.00;101209.88;6220878;28;20057;-75
2023/05/11 13:54:52;;;;;;;11.75;4.50;;;;;;;14.23;100.00;101202.16;6224281;28;20053;-75
2023/05/11 13:57:54;;;;;;;11.07;5.05;;;;;;;14.16;100.00;101206.97;6226176;28;20050;-75
2023/05/11 14:00:56;;;;;;;14.13;5.07;;;;;;;14.13;100.00;101201.88;6226413;28;20050;-75
2023/05/11 14:03:58;;;;;;;13.63;4.70;;;;;;;14.16;100.00;101199.03;6226662;28;20061;-75